Time;durP1;ratioP1;P1;durP2;ratioP2;P2;SDS_P1;SDS_P2;PMS_P1;PMS_P2;Temp;Humidity;BMP_temperature;BMP_pressure;BME280_temperature;BME280_humidity;BME280_pressure;Samples;Min_cycle;Max_cycle;Signal;HPM_P1;HPM_P2
2021/11/28 00:02:27;;;;;;;;;;;4.30;99.90;;;;;;8418085;28;20014;-71
2021/11/28 00:06:30;;;;;;;;;;;4.20;99.90;;;;;;8417142;28;19923;-71
2021/11/28 00:10:51;;;;;;;;;;;4.20;99.90;;;;;;8415668;28;19927;-71
2021/11/28 00:14:56;;;;;;;;;;;4.20;99.90;;;;;;8430113;28;19920;-72
2021/11/28 00:18:58;;;;;;;;;;;4.20;99.90;;;;;;8412269;28;19951;-71
2021/11/28 00:22:59;;;;;;;;;;;4.20;99.90;;;;;;8411162;28;20309;-71
2021/11/28 00:27:01;;;;;;;;;;;4.20;99.90;;;;;;8420897;28;19999;-72
2021/11/28 00:31:03;;;;;;;;;;;4.20;99.90;;;;;;8413083;28;20299;-71
2021/11/28 00:35:05;;;;;;;;;;;4.20;99.90;;;;;;8422898;28;20355;-71
2021/11/28 00:39:08;;;;;;;;;;;4.20;99.90;;;;;;8428478;28;19924;-71
2021/11/28 00:43:09;;;;;;;;;;;4.20;99.90;;;;;;8429062;28;19935;-71
2021/11/28 00:47:11;;;;;;;;;;;4.20;99.90;;;;;;8426626;28;19962;-71
2021/11/28 00:55:21;;;;;;;;;;;4.20;99.90;;;;;;8432983;28;19970;-72
2021/11/28 00:59:22;;;;;;;;;;;4.20;99.90;;;;;;8422154;28;19953;-72
2021/11/28 01:03:24;;;;;;;;;;;4.20;99.90;;;;;;8431541;28;19973;-71
2021/11/28 01:07:30;;;;;;;;;;;4.20;99.90;;;;;;8425222;28;19959;-71
2021/11/28 01:11:31;;;;;;;;;;;4.20;99.90;;;;;;8427452;28;19928;-71
2021/11/28 01:15:33;;;;;;;;;;;4.20;99.90;;;;;;8436809;28;19920;-71
2021/11/28 01:19:35;;;;;;;;;;;4.20;99.90;;;;;;8459326;27;19943;-71
2021/11/28 01:23:36;;;;;;;;;;;4.20;99.90;;;;;;8419877;28;20403;-71
2021/11/28 01:27:43;;;;;;;;;;;4.20;99.90;;;;;;8431103;28;20302;-71
2021/11/28 01:31:44;;;;;;;;;;;4.20;99.90;;;;;;8415067;28;19936;-71
2021/11/28 01:35:46;;;;;;;;;;;4.20;99.90;;;;;;8425825;28;20029;-71
2021/11/28 01:39:48;;;;;;;;;;;4.20;99.90;;;;;;8421566;28;19927;-71
2021/11/28 01:43:52;;;;;;;;;;;4.20;99.90;;;;;;8428223;28;19920;-71
2021/11/28 01:47:55;;;;;;;;;;;4.20;99.90;;;;;;8429647;28;19928;-71
2021/11/28 01:51:56;;;;;;;;;;;4.20;99.90;;;;;;8429930;28;19935;-71
2021/11/28 01:55:58;;;;;;;;;;;4.20;99.90;;;;;;8434958;28;19927;-71
2021/11/28 02:00:03;;;;;;;;;;;4.20;99.90;;;;;;8432935;28;20338;-72
2021/11/28 02:04:07;;;;;;;;;;;4.20;99.90;;;;;;8418583;28;20774;-71
2021/11/28 02:08:08;;;;;;;;;;;4.20;99.90;;;;;;8419050;28;19928;-72
2021/11/28 02:12:10;;;;;;;;;;;4.20;99.90;;;;;;8423339;28;19952;-71
2021/11/28 02:16:12;;;;;;;;;;;4.20;99.90;;;;;;8421807;28;19955;-72
2021/11/28 02:20:14;;;;;;;;;;;4.20;99.90;;;;;;8422577;28;20272;-72
2021/11/28 02:24:15;;;;;;;;;;;4.20;99.90;;;;;;8426316;28;19930;-72
2021/11/28 02:28:17;;;;;;;;;;;4.20;99.90;;;;;;8415594;28;20325;-71
2021/11/28 02:32:19;;;;;;;;;;;4.20;99.90;;;;;;8425347;28;19963;-71
2021/11/28 02:36:20;;;;;;;;;;;4.20;99.90;;;;;;8429289;28;19963;-71
2021/11/28 02:40:23;;;;;;;;;;;4.20;99.90;;;;;;8431226;28;19955;-71
2021/11/28 02:44:26;;;;;;;;;;;4.20;99.90;;;;;;8424986;28;19927;-72
2021/11/28 02:48:28;;;;;;;;;;;4.20;99.90;;;;;;8425495;28;20367;-72
2021/11/28 02:52:30;;;;;;;;;;;4.20;99.90;;;;;;8426647;28;19925;-71
2021/11/28 02:56:32;;;;;;;;;;;4.20;99.90;;;;;;8424494;28;19920;-72
2021/11/28 03:00:35;;;;;;;;;;;4.20;99.90;;;;;;8421429;28;19921;-71
2021/11/28 03:04:36;;;;;;;;;;;4.20;99.90;;;;;;8426084;28;19958;-71
2021/11/28 03:08:38;;;;;;;;;;;4.20;99.90;;;;;;8425579;28;19939;-71
2021/11/28 03:12:40;;;;;;;;;;;4.20;99.90;;;;;;8422375;28;19935;-71
2021/11/28 03:16:42;;;;;;;;;;;4.20;99.90;;;;;;8420943;28;20078;-71
2021/11/28 03:20:43;;;;;;;;;;;4.20;99.90;;;;;;8423058;28;19923;-71
2021/11/28 03:24:45;;;;;;;;;;;4.20;99.90;;;;;;8421191;28;19967;-72
2021/11/28 03:28:48;;;;;;;;;;;4.20;99.90;;;;;;8428967;28;19924;-71
2021/11/28 03:32:51;;;;;;;;;;;4.20;99.90;;;;;;8425007;28;19928;-71
2021/11/28 03:36:55;;;;;;;;;;;4.20;99.90;;;;;;8421750;28;19971;-71
2021/11/28 03:40:56;;;;;;;;;;;4.20;99.90;;;;;;8417175;28;20366;-71
2021/11/28 03:44:58;;;;;;;;;;;4.20;99.90;;;;;;8426840;28;20370;-71
2021/11/28 03:49:00;;;;;;;;;;;4.20;99.90;;;;;;8419514;28;19959;-71
2021/11/28 03:53:02;;;;;;;;;;;4.20;99.90;;;;;;8418616;28;20321;-72
2021/11/28 03:57:04;;;;;;;;;;;4.20;99.90;;;;;;8416176;28;19920;-72
2021/11/28 04:01:07;;;;;;;;;;;4.20;99.90;;;;;;8413266;28;19960;-72
2021/11/28 04:05:09;;;;;;;;;;;4.20;99.90;;;;;;8413220;28;19928;-71
2021/11/28 04:09:12;;;;;;;;;;;4.00;99.90;;;;;;8417051;28;19920;-71
2021/11/28 04:13:13;;;;;;;;;;;3.90;99.90;;;;;;8427792;28;19956;-72
2021/11/28 04:17:15;;;;;;;;;;;3.90;99.90;;;;;;8419306;28;19927;-71
2021/11/28 04:21:16;;;;;;;;;;;3.80;99.90;;;;;;8417919;28;20074;-71
2021/11/28 04:25:18;;;;;;;;;;;3.80;99.90;;;;;;8438988;28;19920;-71
2021/11/28 04:29:20;;;;;;;;;;;3.80;99.90;;;;;;8412647;28;19979;-71
2021/11/28 04:33:21;;;;;;;;;;;3.80;99.90;;;;;;8418065;28;19935;-71
2021/11/28 04:37:23;;;;;;;;;;;3.80;99.90;;;;;;8421125;28;19920;-72
2021/11/28 04:41:25;;;;;;;;;;;3.70;99.90;;;;;;8410709;28;20030;-71
2021/11/28 04:45:26;;;;;;;;;;;3.70;99.90;;;;;;8422240;28;19951;-72
2021/11/28 04:49:29;;;;;;;;;;;3.80;99.90;;;;;;8413622;28;19944;-72
2021/11/28 04:53:30;;;;;;;;;;;3.70;99.90;;;;;;8415460;28;19974;-72
2021/11/28 04:57:32;;;;;;;;;;;3.80;99.90;;;;;;8409147;28;20063;-72
2021/11/28 05:01:34;;;;;;;;;;;3.80;99.90;;;;;;8422517;28;20312;-72
2021/11/28 05:05:36;;;;;;;;;;;3.80;99.90;;;;;;8424270;28;19927;-72
2021/11/28 05:09:37;;;;;;;;;;;3.80;99.90;;;;;;8428343;28;20355;-72
2021/11/28 05:13:39;;;;;;;;;;;3.80;99.90;;;;;;8425721;28;20379;-72
2021/11/28 05:17:41;;;;;;;;;;;3.70;99.90;;;;;;8433239;28;19931;-72
2021/11/28 05:21:43;;;;;;;;;;;3.60;99.90;;;;;;8432474;28;19927;-72
2021/11/28 05:25:45;;;;;;;;;;;3.50;99.90;;;;;;8439121;28;19955;-72
2021/11/28 05:29:46;;;;;;;;;;;3.40;99.90;;;;;;8417957;28;19974;-72
2021/11/28 05:33:48;;;;;;;;;;;3.30;99.90;;;;;;8418629;28;19920;-72
2021/11/28 05:37:50;;;;;;;;;;;3.30;99.90;;;;;;8422044;28;20347;-72
2021/11/28 05:41:52;;;;;;;;;;;3.20;99.90;;;;;;8422588;28;19950;-72
2021/11/28 05:45:53;;;;;;;;;;;3.20;99.90;;;;;;8427288;28;19920;-72
2021/11/28 05:49:56;;;;;;;;;;;3.20;99.90;;;;;;8428180;28;19951;-74
2021/11/28 05:53:57;;;;;;;;;;;3.10;99.90;;;;;;8430389;28;19962;-74
2021/11/28 05:57:59;;;;;;;;;;;3.10;99.90;;;;;;8421538;28;21947;-74
2021/11/28 06:02:01;;;;;;;;;;;3.10;99.90;;;;;;8426199;28;19924;-74
2021/11/28 06:06:02;;;;;;;;;;;3.10;99.90;;;;;;8429912;28;19920;-74
2021/11/28 06:10:05;;;;;;;;;;;3.00;99.90;;;;;;8427133;28;19966;-75
2021/11/28 06:14:07;;;;;;;;;;;3.00;99.90;;;;;;8459845;27;20410;-74
2021/11/28 06:18:10;;;;;;;;;;;2.90;99.90;;;;;;8424727;28;20442;-74
2021/11/28 06:22:12;;;;;;;;;;;2.80;99.90;;;;;;8420647;28;20271;-74
2021/11/28 06:26:17;;;;;;;;;;;2.80;99.90;;;;;;8419504;28;19930;-74
2021/11/28 06:30:19;;;;;;;;;;;2.70;99.90;;;;;;8416055;28;20361;-74
2021/11/28 06:34:20;;;;;;;;;;;2.70;99.90;;;;;;8423877;28;20032;-74
2021/11/28 06:38:22;;;;;;;;;;;2.70;99.90;;;;;;8425484;28;20390;-74
2021/11/28 06:42:23;;;;;;;;;;;2.70;99.90;;;;;;8418850;28;19928;-74
2021/11/28 06:46:25;;;;;;;;;;;2.70;99.90;;;;;;8419785;28;19978;-75
2021/11/28 06:50:27;;;;;;;;;;;2.70;99.90;;;;;;8423880;28;19930;-74
2021/11/28 06:54:28;;;;;;;;;;;2.70;99.90;;;;;;8421015;28;19920;-74
2021/11/28 06:58:31;;;;;;;;;;;2.70;99.90;;;;;;8410464;28;19963;-74
2021/11/28 07:02:33;;;;;;;;;;;2.70;99.90;;;;;;8416037;28;19974;-74
2021/11/28 07:06:34;;;;;;;;;;;2.70;99.90;;;;;;8412197;28;20352;-75
2021/11/28 07:10:39;;;;;;;;;;;2.70;99.90;;;;;;8420469;28;19920;-74
2021/11/28 07:14:41;;;;;;;;;;;2.80;99.90;;;;;;8421960;28;19963;-74
2021/11/28 07:18:44;;;;;;;;;;;2.80;99.90;;;;;;8417042;28;19920;-74
2021/11/28 07:22:46;;;;;;;;;;;2.80;99.90;;;;;;8423793;28;20312;-74
2021/11/28 07:26:47;;;;;;;;;;;2.80;99.90;;;;;;8425525;28;19920;-74
2021/11/28 07:30:51;;;;;;;;;;;2.80;99.90;;;;;;8418728;28;20313;-74
2021/11/28 07:34:52;;;;;;;;;;;2.90;99.90;;;;;;8418409;28;19982;-74
2021/11/28 07:38:54;;;;;;;;;;;3.00;99.90;;;;;;8420437;28;19924;-75
2021/11/28 07:42:56;;;;;;;;;;;3.00;99.90;;;;;;8422709;28;19919;-74
2021/11/28 07:46:57;;;;;;;;;;;3.10;99.90;;;;;;8426743;28;20716;-74
2021/11/28 07:50:59;;;;;;;;;;;3.10;99.90;;;;;;8423924;28;19959;-74
2021/11/28 07:55:01;;;;;;;;;;;3.20;99.90;;;;;;8424032;28;19930;-74
2021/11/28 07:59:02;;;;;;;;;;;3.20;99.90;;;;;;8412018;28;19927;-74
2021/11/28 08:03:04;;;;;;;;;;;3.20;99.90;;;;;;8419010;28;19920;-74
2021/11/28 08:07:07;;;;;;;;;;;3.20;99.90;;;;;;8419238;28;19963;-75
2021/11/28 08:11:08;;;;;;;;;;;3.20;99.90;;;;;;8437857;28;19950;-75
2021/11/28 08:15:15;;;;;;;;;;;3.20;99.90;;;;;;8421004;28;20007;-74
2021/11/28 08:19:17;;;;;;;;;;;3.40;99.90;;;;;;8431154;28;19975;-75
2021/11/28 08:23:19;;;;;;;;;;;3.50;99.90;;;;;;8420225;28;19938;-74
2021/11/28 08:27:20;;;;;;;;;;;3.60;99.90;;;;;;8455855;28;20410;-74
2021/11/28 08:31:23;;;;;;;;;;;3.70;99.90;;;;;;8422194;28;20434;-74
2021/11/28 08:35:24;;;;;;;;;;;3.80;99.90;;;;;;8421698;28;19974;-74
2021/11/28 08:39:26;;;;;;;;;;;4.00;99.90;;;;;;8421332;28;20420;-74
2021/11/28 08:43:27;;;;;;;;;;;4.10;99.90;;;;;;8425429;28;19959;-74
2021/11/28 08:47:29;;;;;;;;;;;4.20;99.90;;;;;;8430363;28;19924;-75
2021/11/28 08:51:31;;;;;;;;;;;4.30;99.90;;;;;;8422663;28;20050;-75
2021/11/28 08:55:33;;;;;;;;;;;4.40;99.90;;;;;;8429813;28;19962;-72
2021/11/28 08:59:35;;;;;;;;;;;4.70;99.90;;;;;;8418646;28;19920;-74
2021/11/28 09:03:36;;;;;;;;;;;4.90;99.90;;;;;;8431328;28;19920;-74
2021/11/28 09:07:38;;;;;;;;;;;5.00;99.90;;;;;;8429965;28;20335;-72
2021/11/28 09:11:41;;;;;;;;;;;5.10;99.90;;;;;;8422816;28;19924;-72
2021/11/28 09:15:43;;;;;;;;;;;5.10;99.90;;;;;;8431327;28;19919;-74
2021/11/28 09:20:06;;;;;;;;;;;5.20;99.90;;;;;;8429593;28;19919;-72
2021/11/28 09:28:29;;;;;;;;;;;5.10;99.90;;;;;;8430254;28;19920;-75
2021/11/28 09:32:31;;;;;;;;;;;5.10;99.90;;;;;;8428742;28;19959;-74
2021/11/28 09:36:32;;;;;;;;;;;5.00;99.90;;;;;;8428452;28;19919;-74
2021/11/28 09:40:34;;;;;;;;;;;5.00;99.90;;;;;;8430864;28;19924;-74
2021/11/28 09:44:37;;;;;;;;;;;5.00;99.90;;;;;;8421487;28;19994;-74
2021/11/28 09:48:39;;;;;;;;;;;5.00;99.90;;;;;;8428578;28;19924;-74
2021/11/28 09:52:42;;;;;;;;;;;5.00;99.90;;;;;;8425722;28;19947;-74
2021/11/28 09:56:44;;;;;;;;;;;5.00;99.90;;;;;;8426740;28;19919;-75
2021/11/28 10:00:45;;;;;;;;;;;5.00;99.90;;;;;;8423885;28;19974;-72
2021/11/28 10:04:47;;;;;;;;;;;4.90;99.90;;;;;;8459371;27;19928;-72
2021/11/28 10:08:49;;;;;;;;;;;5.00;99.90;;;;;;8424555;28;19967;-72
2021/11/28 10:12:51;;;;;;;;;;;5.00;99.90;;;;;;8425067;28;20339;-72
2021/11/28 10:16:53;;;;;;;;;;;5.00;99.90;;;;;;8432902;28;19920;-72
2021/11/28 10:20:55;;;;;;;;;;;5.00;99.90;;;;;;8430268;28;20051;-72
2021/11/28 10:25:00;;;;;;;;;;;5.00;99.90;;;;;;8428402;28;20294;-72
2021/11/28 10:29:05;;;;;;;;;;;5.00;99.90;;;;;;8418762;28;20371;-72
2021/11/28 10:33:09;;;;;;;;;;;5.10;99.90;;;;;;8417919;28;19935;-72
2021/11/28 10:37:18;;;;;;;;;;;5.10;99.90;;;;;;8417975;28;19928;-72
2021/11/28 10:41:21;;;;;;;;;;;5.30;99.90;;;;;;8419868;28;19920;-72
2021/11/28 10:45:24;;;;;;;;;;;5.40;99.90;;;;;;8420851;28;19928;-72
2021/11/28 10:49:25;;;;;;;;;;;5.60;99.90;;;;;;8411714;28;19970;-72
2021/11/28 10:53:27;;;;;;;;;;;5.80;99.90;;;;;;8418282;28;19924;-72
2021/11/28 10:57:29;;;;;;;;;;;5.90;99.90;;;;;;8422940;28;19920;-72
2021/11/28 11:01:31;;;;;;;;;;;5.90;99.90;;;;;;8425867;28;19967;-72
2021/11/28 11:05:33;;;;;;;;;;;5.90;99.90;;;;;;8412963;28;19920;-71
2021/11/28 11:09:40;;;;;;;;;;;5.90;99.90;;;;;;8416087;28;20363;-72
2021/11/28 11:13:58;;;;;;;;;;;6.00;99.90;;;;;;8419050;28;19924;-74
2021/11/28 11:18:02;;;;;;;;;;;5.90;99.90;;;;;;8419830;28;20006;-75
2021/11/28 11:22:05;;;;;;;;;;;5.90;99.90;;;;;;8413956;28;19927;-74
2021/11/28 11:26:26;;;;;;;;;;;5.90;99.90;;;;;;8411417;28;19928;-74
2021/11/28 11:30:28;;;;;;;;;;;5.80;99.90;;;;;;8421297;28;19920;-74
2021/11/28 11:34:31;;;;;;;;;;;5.80;99.90;;;;;;8420648;28;19920;-74
2021/11/28 11:38:32;;;;;;;;;;;5.70;99.90;;;;;;8418711;28;20051;-74
2021/11/28 11:42:34;;;;;;;;;;;5.60;99.90;;;;;;8424417;28;19967;-74
2021/11/28 11:46:36;;;;;;;;;;;5.60;99.90;;;;;;8425346;28;19931;-75
2021/11/28 11:50:38;;;;;;;;;;;5.50;99.90;;;;;;8425935;28;19919;-74
2021/11/28 11:54:43;;;;;;;;;;;5.40;99.90;;;;;;8417528;28;20392;-74
2021/11/28 11:58:44;;;;;;;;;;;5.40;99.90;;;;;;8408835;28;20264;-74
2021/11/28 12:02:50;;;;;;;;;;;5.30;99.90;;;;;;8421590;28;19978;-74
2021/11/28 12:06:53;;;;;;;;;;;5.30;99.90;;;;;;8420662;28;19924;-74
2021/11/28 12:10:57;;;;;;;;;;;5.30;99.90;;;;;;8419240;28;19920;-74
2021/11/28 12:15:17;;;;;;;;;;;5.20;99.90;;;;;;8422009;28;19920;-74
2021/11/28 12:19:36;;;;;;;;;;;5.20;99.90;;;;;;8421753;28;19978;-74
2021/11/28 12:24:20;;;;;;;;;;;5.10;99.90;;;;;;8432637;28;19961;-74
2021/11/28 12:28:29;;;;;;;;;;;5.10;99.90;;;;;;8349798;28;19928;-72
2021/11/28 12:32:52;;;;;;;;;;;5.10;99.90;;;;;;8384251;28;19927;-72
2021/11/28 12:36:55;;;;;;;;;;;5.20;99.90;;;;;;8431163;28;19982;-72
2021/11/28 12:40:56;;;;;;;;;;;5.20;99.90;;;;;;8424611;28;19970;-72
2021/11/28 12:44:59;;;;;;;;;;;5.30;99.90;;;;;;8424915;28;20287;-72
2021/11/28 12:49:19;;;;;;;;;;;5.30;99.90;;;;;;8429715;28;19959;-72
2021/11/28 12:53:32;;;;;;;;;;;5.30;99.90;;;;;;8394146;28;19924;-72
2021/11/28 12:57:35;;;;;;;;;;;5.30;99.90;;;;;;8398741;28;19967;-72
2021/11/28 13:01:46;;;;;;;;;;;5.30;99.90;;;;;;8396067;28;19992;-72
2021/11/28 13:05:49;;;;;;;;;;;5.30;99.90;;;;;;8394924;28;19920;-72
2021/11/28 13:09:54;;;;;;;;;;;5.30;99.90;;;;;;8407184;28;19924;-72
2021/11/28 13:13:58;;;;;;;;;;;5.30;99.90;;;;;;8410365;28;19966;-72
2021/11/28 13:18:01;;;;;;;;;;;5.30;99.90;;;;;;8396848;28;20026;-72
2021/11/28 13:22:13;;;;;;;;;;;5.30;99.90;;;;;;8397081;28;19994;-72
2021/11/28 13:26:16;;;;;;;;;;;5.30;99.90;;;;;;8396760;28;19931;-72
2021/11/28 13:30:21;;;;;;;;;;;5.30;99.90;;;;;;8394878;28;19924;-72
2021/11/28 13:34:28;;;;;;;;;;;5.30;99.90;;;;;;8394533;28;19931;-72
2021/11/28 13:38:43;;;;;;;;;;;5.40;99.90;;;;;;8395218;28;20006;-72
2021/11/28 13:42:45;;;;;;;;;;;5.30;99.90;;;;;;8394434;28;19920;-72
2021/11/28 13:46:48;;;;;;;;;;;5.30;99.90;;;;;;8400816;28;19920;-72
2021/11/28 13:50:49;;;;;;;;;;;5.40;99.90;;;;;;8393025;28;19924;-72
2021/11/28 13:54:51;;;;;;;;;;;5.40;99.90;;;;;;8396747;28;19996;-72
2021/11/28 13:59:03;;;;;;;;;;;5.30;99.90;;;;;;8397426;28;19924;-72
2021/11/28 14:03:04;;;;;;;;;;;5.30;99.90;;;;;;8395954;28;19956;-72
2021/11/28 14:07:13;;;;;;;;;;;5.40;99.90;;;;;;8391653;28;19928;-72
2021/11/28 14:11:16;;;;;;;;;;;5.30;99.90;;;;;;8390107;28;19970;-72
2021/11/28 14:15:19;;;;;;;;;;;5.30;99.90;;;;;;8401815;28;19939;-72
2021/11/28 14:19:30;;;;;;;;;;;5.30;99.90;;;;;;8391528;28;19974;-72
2021/11/28 14:23:32;;;;;;;;;;;5.30;99.90;;;;;;8397102;28;19935;-72
2021/11/28 14:27:33;;;;;;;;;;;5.30;99.90;;;;;;8391496;28;20042;-72
2021/11/28 14:31:53;;;;;;;;;;;5.20;99.90;;;;;;8393806;28;24759;-72
2021/11/28 14:35:56;;;;;;;;;;;5.30;99.90;;;;;;8411625;28;19935;-72
2021/11/28 14:40:03;;;;;;;;;;;5.30;99.90;;;;;;8394934;28;19924;-72
2021/11/28 14:44:08;;;;;;;;;;;5.30;99.90;;;;;;8400691;28;20343;-73
2021/11/28 14:48:19;;;;;;;;;;;5.40;99.90;;;;;;8398287;28;19928;-74
2021/11/28 14:52:28;;;;;;;;;;;6.00;99.90;;;;;;8394206;28;20929;-75
2021/11/28 14:56:31;;;;;;;;;;;6.30;99.90;;;;;;8402242;28;20015;-74
2021/11/28 15:00:35;;;;;;;;;;;6.30;99.90;;;;;;8399538;28;19963;-72
2021/11/28 15:04:38;;;;;;;;;;;6.30;99.90;;;;;;8389535;28;19924;-72
2021/11/28 15:08:41;;;;;;;;;;;6.20;99.90;;;;;;8394016;28;19970;-71
2021/11/28 15:12:43;;;;;;;;;;;6.00;99.90;;;;;;8389901;28;19924;-72
2021/11/28 15:16:45;;;;;;;;;;;5.80;99.90;;;;;;8393177;28;19927;-72
2021/11/28 15:20:46;;;;;;;;;;;5.60;99.90;;;;;;8390807;28;19920;-71
2021/11/28 15:24:48;;;;;;;;;;;5.40;99.90;;;;;;8407218;27;19927;-71
2021/11/28 15:28:49;;;;;;;;;;;5.30;99.90;;;;;;8393017;28;19959;-71
2021/11/28 15:32:52;;;;;;;1.80;0.70;;;5.10;99.90;;;;;;8389858;28;20066;-72
2021/11/28 15:36:54;;;;;;;1.33;0.70;;;4.90;99.90;;;;;;8382638;28;20530;-71
2021/11/28 15:40:56;;;;;;;1.92;0.80;;;4.70;99.90;;;;;;8391747;28;20301;-71
2021/11/28 15:44:58;;;;;;;2.03;0.88;;;4.60;99.90;;;;;;8392973;28;20094;-73
2021/11/28 15:48:59;;;;;;;1.30;0.80;;;4.40;99.90;;;;;;8389761;28;20068;-72
2021/11/28 15:53:01;;;;;;;4.40;1.00;;;4.30;99.90;;;;;;8395957;28;20076;-72
2021/11/28 15:57:03;;;;;;;1.85;0.90;;;4.20;99.90;;;;;;8391697;28;20052;-72
2021/11/28 16:01:05;;;;;;;;;;;4.00;99.90;;;;;;8394509;28;20044;-72
2021/11/28 16:05:07;;;;;;;;;;;4.00;99.90;;;;;;8393091;28;20351;-71
2021/11/28 16:09:09;;;;;;;;;;;3.80;99.90;;;;;;8391030;28;20409;-71
2021/11/28 16:13:10;;;;;;;;;;;3.70;99.90;;;;;;8393669;28;19920;-71
2021/11/28 16:17:12;;;;;;;;;;;3.60;99.90;;;;;;8396887;28;19931;-71
2021/11/28 16:21:14;;;;;;;;;;;3.50;99.90;;;;;;8386869;28;20387;-71
2021/11/28 16:25:15;;;;;;;;;;;3.40;99.90;;;;;;8404759;28;20399;-71
2021/11/28 16:29:17;;;;;;;;;;;3.40;99.90;;;;;;8399971;28;19928;-72
2021/11/28 16:33:20;;;;;;;;;;;3.20;99.90;;;;;;8395795;28;19931;-71
2021/11/28 16:37:22;;;;;;;;;;;3.20;99.90;;;;;;8392835;28;19925;-71
2021/11/28 16:41:24;;;;;;;;;;;3.10;99.90;;;;;;8389241;28;20519;-71
2021/11/28 16:45:26;;;;;;;;;;;3.00;99.90;;;;;;8396181;28;19978;-71
2021/11/28 16:49:28;;;;;;;;;;;2.90;99.90;;;;;;8426126;27;19928;-71
2021/11/28 16:53:30;;;;;;;;;;;2.80;99.90;;;;;;8406341;28;19963;-71
2021/11/28 16:57:32;;;;;;;;;;;2.70;99.90;;;;;;8390701;28;19921;-73
2021/11/28 17:01:33;;;;;;;;;;;2.70;99.90;;;;;;8387576;28;19931;-74
2021/11/28 17:05:36;;;;;;;;;;;2.60;99.90;;;;;;8387511;28;20480;-74
2021/11/28 17:09:37;;;;;;;;;;;2.60;99.90;;;;;;8388907;28;19928;-74
2021/11/28 17:13:39;;;;;;;;;;;2.50;99.90;;;;;;8401923;28;19931;-73
2021/11/28 17:17:40;;;;;;;;;;;2.50;99.90;;;;;;8391559;28;19939;-74
2021/11/28 17:21:42;;;;;;;;;;;2.40;99.90;;;;;;8394082;28;19958;-74
2021/11/28 17:25:44;;;;;;;;;;;2.40;99.90;;;;;;8389828;28;19969;-74
2021/11/28 17:29:45;;;;;;;;;;;2.40;99.90;;;;;;8393883;28;19924;-73
2021/11/28 17:33:49;;;;;;;;;;;2.30;99.90;;;;;;8391931;28;20399;-74
2021/11/28 17:37:50;;;;;;;;;;;2.30;99.90;;;;;;8391030;28;20065;-74
2021/11/28 17:41:52;;;;;;;;;;;2.20;99.90;;;;;;8395522;28;19920;-74
2021/11/28 17:45:53;;;;;;;;;;;2.20;99.90;;;;;;8395772;28;20423;-74
2021/11/28 17:49:55;;;;;;;;;;;2.10;99.90;;;;;;8396254;28;19920;-74
2021/11/28 17:53:57;;;;;;;;;;;2.10;99.90;;;;;;8394679;28;20009;-74
2021/11/28 17:57:58;;;;;;;;;;;2.00;99.90;;;;;;8391885;28;19976;-74
2021/11/28 18:02:00;;;;;;;;;;;2.00;99.90;;;;;;8392834;28;20443;-73
2021/11/28 18:06:02;;;;;;;;;;;1.90;99.90;;;;;;8407719;28;19936;-73
2021/11/28 18:10:05;;;;;;;;;;;1.90;99.90;;;;;;8397645;28;20371;-73
2021/11/28 18:14:07;;;;;;;;;;;1.90;99.90;;;;;;8396923;28;19928;-73
2021/11/28 18:18:09;;;;;;;;;;;1.80;99.90;;;;;;8401619;28;20217;-73
2021/11/28 18:22:10;;;;;;;;;;;1.80;99.90;;;;;;8389195;28;19924;-73
2021/11/28 18:26:12;;;;;;;;;;;1.80;99.90;;;;;;8391297;28;20339;-73
2021/11/28 18:30:14;;;;;;;;;;;1.80;99.90;;;;;;8393942;28;19924;-73
2021/11/28 18:34:15;;;;;;;;;;;1.70;99.90;;;;;;8401842;28;19920;-73
2021/11/28 18:38:17;;;;;;;;;;;1.70;99.90;;;;;;8386623;28;19920;-73
2021/11/28 18:42:19;;;;;;;;;;;1.70;99.90;;;;;;8392388;28;19928;-73
2021/11/28 18:46:21;;;;;;;;;;;1.70;99.90;;;;;;8402987;28;19924;-74
2021/11/28 18:50:23;;;;;;;;;;;1.60;99.90;;;;;;8389419;28;20352;-73
2021/11/28 18:54:25;;;;;;;;;;;1.60;99.90;;;;;;8393572;28;20348;-73
2021/11/28 18:58:26;;;;;;;;;;;1.60;99.90;;;;;;8390946;28;19959;-73
2021/11/28 19:02:28;;;;;;;;;;;1.50;99.90;;;;;;8393039;28;19958;-73
2021/11/28 19:06:34;;;;;;;;;;;1.50;99.90;;;;;;8392616;28;20425;-73
2021/11/28 19:10:36;;;;;;;;;;;1.40;99.90;;;;;;8393680;28;20330;-73
2021/11/28 19:14:38;;;;;;;;;;;1.40;99.90;;;;;;8388546;28;20022;-73
2021/11/28 19:18:40;;;;;;;;;;;1.40;99.90;;;;;;8390112;28;19932;-73
2021/11/28 19:22:42;;;;;;;;;;;1.40;99.90;;;;;;8391758;28;20339;-73
2021/11/28 19:26:44;;;;;;;;;;;1.30;99.90;;;;;;8389898;28;19931;-73
2021/11/28 19:30:45;;;;;;;;;;;1.30;99.90;;;;;;8392847;28;19974;-73
2021/11/28 19:34:47;;;;;;;;;;;1.30;99.90;;;;;;8391607;28;19920;-73
2021/11/28 19:39:10;;;;;;;;;;;1.20;99.90;;;;;;8386902;28;20038;-73
2021/11/28 19:43:12;;;;;;;;;;;1.20;99.90;;;;;;8392019;28;20360;-73
2021/11/28 19:47:17;;;;;;;;;;;1.20;99.90;;;;;;8389428;28;19920;-73
2021/11/28 19:51:19;;;;;;;;;;;1.20;99.90;;;;;;8388786;28;19943;-73
2021/11/28 19:55:21;;;;;;;;;;;1.20;99.90;;;;;;8393474;28;20396;-73
2021/11/28 19:59:26;;;;;;;;;;;1.10;99.90;;;;;;8388681;28;19921;-73
2021/11/28 20:03:28;;;;;;;;;;;1.10;99.90;;;;;;8389708;28;19955;-73
2021/11/28 20:07:30;;;;;;;;;;;1.10;99.90;;;;;;8388628;28;20364;-73
2021/11/28 20:11:31;;;;;;;;;;;1.00;99.90;;;;;;8389618;28;19920;-73
2021/11/28 20:15:33;;;;;;;;;;;1.00;99.90;;;;;;8389399;28;20268;-73
2021/11/28 20:19:35;;;;;;;;;;;1.00;99.90;;;;;;8385823;28;19928;-73
2021/11/28 20:23:37;;;;;;;;;;;1.00;99.90;;;;;;8390420;28;19990;-73
2021/11/28 20:27:39;;;;;;;;;;;1.00;99.90;;;;;;8387636;28;19956;-73
2021/11/28 20:31:42;;;;;;;;;;;1.00;99.90;;;;;;8398075;28;19928;-73
2021/11/28 20:35:43;;;;;;;;;;;0.90;99.90;;;;;;8390747;28;19929;-73
2021/11/28 20:39:45;;;;;;;;;;;0.90;99.90;;;;;;8391610;28;19924;-73
2021/11/28 20:43:50;;;;;;;;;;;0.90;99.90;;;;;;8385857;28;19927;-73
2021/11/28 20:47:51;;;;;;;;;;;0.90;99.90;;;;;;8385673;28;20403;-73
2021/11/28 20:51:53;;;;;;;;;;;0.90;99.90;;;;;;8394347;28;20320;-73
2021/11/28 20:55:55;;;;;;;;;;;0.80;99.90;;;;;;8393052;28;19924;-73
2021/11/28 20:59:57;;;;;;;;;;;0.80;99.90;;;;;;8425432;27;20431;-73
2021/11/28 21:03:59;;;;;;;;;;;0.90;99.90;;;;;;8392390;28;20011;-73
2021/11/28 21:08:01;;;;;;;;;;;0.80;99.90;;;;;;8390719;28;20148;-73
2021/11/28 21:12:03;;;;;;;;;;;0.80;99.90;;;;;;8395174;28;19924;-73
2021/11/28 21:16:06;;;;;;;;;;;0.80;99.90;;;;;;8396795;28;19921;-73
2021/11/28 21:20:07;;;;;;;;;;;0.80;99.90;;;;;;8394868;28;19924;-73
2021/11/28 21:24:10;;;;;;;;;;;0.80;99.90;;;;;;8405240;28;19967;-73
2021/11/28 21:28:12;;;;;;;;;;;0.80;99.90;;;;;;8404241;28;19963;-73
2021/11/28 21:32:14;;;;;;;;;;;0.80;99.90;;;;;;8398818;28;20034;-73
2021/11/28 21:36:15;;;;;;;;;;;0.80;99.90;;;;;;8393477;28;19981;-73
2021/11/28 21:40:18;;;;;;;;;;;0.90;99.90;;;;;;8390490;28;20000;-73
2021/11/28 21:44:19;;;;;;;;;;;0.90;99.90;;;;;;8392731;28;19974;-73
2021/11/28 21:48:21;;;;;;;;;;;0.90;99.90;;;;;;8394331;28;20440;-73
2021/11/28 21:52:23;;;;;;;;;;;1.00;99.90;;;;;;8391115;28;20020;-73
2021/11/28 21:56:24;;;;;;;;;;;1.00;99.90;;;;;;8392684;28;20369;-73
2021/11/28 22:00:29;;;;;;;;;;;1.00;99.90;;;;;;8392769;28;19964;-73
2021/11/28 22:04:31;;;;;;;;;;;1.00;99.90;;;;;;8417041;28;19963;-73
2021/11/28 22:08:32;;;;;;;;;;;1.00;99.90;;;;;;8436421;27;20356;-73
2021/11/28 22:12:34;;;;;;;;;;;1.00;99.90;;;;;;8425534;28;20366;-73
2021/11/28 22:16:36;;;;;;;;;;;0.90;99.90;;;;;;8424046;28;19975;-73
2021/11/28 22:20:38;;;;;;;;;;;0.90;99.90;;;;;;8427988;28;20333;-73
2021/11/28 22:24:40;;;;;;;;;;;0.90;99.90;;;;;;8424144;28;19927;-73
2021/11/28 22:28:41;;;;;;;;;;;0.90;99.90;;;;;;8425491;28;19924;-73
2021/11/28 22:32:43;;;;;;;;;;;0.90;99.90;;;;;;8430338;28;19975;-73
2021/11/28 22:36:44;;;;;;;;;;;0.90;99.90;;;;;;8428067;28;20074;-73
2021/11/28 22:40:46;;;;;;;;;;;1.00;99.90;;;;;;8426441;27;19923;-73
2021/11/28 22:44:48;;;;;;;;;;;1.00;99.90;;;;;;8432906;28;19968;-72
2021/11/28 22:48:50;;;;;;;;;;;1.00;99.90;;;;;;8423542;28;20281;-73
2021/11/28 22:52:52;;;;;;;;;;;1.00;99.90;;;;;;8426518;28;19931;-73
2021/11/28 22:56:53;;;;;;;;;;;0.90;99.90;;;;;;8418488;28;20253;-73
2021/11/28 23:00:55;;;;;;;;;;;0.90;99.90;;;;;;8421072;28;20394;-73
2021/11/28 23:04:56;;;;;;;;;;;1.00;99.90;;;;;;8430664;28;19969;-73
2021/11/28 23:08:58;;;;;;;;;;;1.00;99.90;;;;;;8456400;27;20003;-73
2021/11/28 23:13:00;;;;;;;;;;;1.10;99.90;;;;;;8418576;28;19939;-73
2021/11/28 23:17:02;;;;;;;;;;;1.10;99.90;;;;;;8425638;28;19927;-73
2021/11/28 23:21:04;;;;;;;;;;;1.20;99.90;;;;;;8430863;28;19975;-73
2021/11/28 23:25:06;;;;;;;;;;;1.20;99.90;;;;;;8422841;28;19959;-73
2021/11/28 23:29:08;;;;;;;;;;;1.20;99.90;;;;;;8432227;28;19935;-73
2021/11/28 23:33:10;;;;;;;;;;;1.10;99.90;;;;;;8424481;28;20397;-73
2021/11/28 23:37:11;;;;;;;;;;;1.10;99.90;;;;;;8455637;27;19931;-73
2021/11/28 23:41:13;;;;;;;;;;;1.10;99.90;;;;;;8418474;28;19931;-72
2021/11/28 23:45:15;;;;;;;;;;;1.10;99.90;;;;;;8427402;28;20398;-73
2021/11/28 23:49:17;;;;;;;;;;;1.10;99.90;;;;;;8427780;28;19982;-73
2021/11/28 23:53:18;;;;;;;;;;;1.10;99.90;;;;;;8427334;28;19964;-73
2021/11/28 23:57:20;;;;;;;;;;;1.10;99.90;;;;;;8417861;28;19974;-73
